Terminal Aerodrome Forecast
Issued by NWS Upton, NY

Current Version | Previous Version | Text Only | Print | Product List | Glossary On
Versions: 1 2 3 4 5 6 7 8 9 10 11 12 13 14 15 16 17 18 19 20 21 22 23 24 25 26 27 28 29 30 31 32 33
000 FTUS41 KOKX 241900 AAA TAFBDR TAF AMD KBDR 241950Z 2420/2518 32013G21KT P6SM SCT030 BKN050 TEMPO 2420/2421 P6SM BKN025 BKN040 OVC070 FM242200 32010KT P6SM SCT050 FM250000 32007KT P6SM SCT250 FM251500 30008KT P6SM FEW040 SCT250=

USA.gov is the U.S. government's official web portal to all federal, state and local government web resources and services.